createdAt,value
2023-02-28T00:00:11.096Z,63.17
2023-02-28T00:02:39.168Z,63.22
2023-02-28T00:05:08.401Z,63.40
2023-02-28T00:07:36.458Z,63.06
2023-02-28T00:10:04.955Z,63.26
2023-02-28T00:12:32.649Z,63.44
2023-02-28T00:15:00.344Z,63.05
2023-02-28T00:17:29.451Z,63.32
2023-02-28T00:19:57.906Z,62.88
2023-02-28T00:22:25.644Z,63.27
2023-02-28T00:24:53.359Z,63.25
2023-02-28T00:27:21.092Z,63.54
2023-02-28T00:29:49.121Z,63.22
2023-02-28T00:32:16.827Z,63.61
2023-02-28T00:34:45.908Z,63.75
2023-02-28T00:37:13.990Z,63.54
2023-02-28T00:39:42.770Z,63.69
2023-02-28T00:42:10.508Z,64.52
2023-02-28T00:44:38.236Z,64.35
2023-02-28T00:47:06.508Z,64.53
2023-02-28T00:49:34.231Z,64.52
2023-02-28T00:52:03.448Z,64.41
2023-02-28T00:54:31.246Z,64.20
2023-02-28T00:56:59.045Z,64.36
2023-02-28T00:59:26.805Z,64.56
2023-02-28T01:01:54.600Z,64.57
2023-02-28T01:04:22.328Z,65.10
2023-02-28T01:06:50.058Z,64.95
2023-02-28T01:09:19.158Z,65.27
2023-02-28T01:11:46.964Z,64.85
2023-02-28T01:14:16.064Z,64.52
2023-02-28T01:16:43.994Z,65.15
2023-02-28T01:19:12.330Z,64.60
2023-02-28T01:21:40.201Z,64.84
2023-02-28T01:24:08.484Z,64.55
2023-02-28T01:26:37.984Z,64.61
2023-02-28T01:29:05.630Z,64.79
2023-02-28T01:31:33.445Z,64.90
2023-02-28T01:34:01.284Z,64.37
2023-02-28T01:36:29.034Z,64.89
2023-02-28T01:38:56.778Z,65.06
2023-02-28T01:41:26.994Z,65.00
2023-02-28T01:44:04.200Z,65.10
2023-02-28T01:46:33.277Z,64.96
2023-02-28T01:49:07.239Z,65.11
2023-02-28T01:51:39.618Z,65.61
2023-02-28T01:54:14.666Z,65.24
2023-02-28T01:56:46.562Z,65.47
2023-02-28T01:59:23.406Z,65.10
2023-02-28T02:01:51.757Z,65.38
2023-02-28T02:04:20.292Z,65.04
2023-02-28T02:06:50.205Z,65.31
2023-02-28T02:09:17.894Z,64.96
2023-02-28T02:11:47.330Z,65.17
2023-02-28T02:14:31.681Z,65.24
2023-02-28T02:17:12.046Z,65.30
2023-02-28T02:20:12.713Z,65.58
2023-02-28T02:23:09.083Z,65.54
2023-02-28T02:25:44.846Z,65.54
2023-02-28T02:28:36.405Z,65.89
2023-02-28T02:31:45.201Z,65.61
2023-02-28T02:34:28.957Z,65.35
2023-02-28T02:37:06.023Z,65.50
2023-02-28T02:39:58.147Z,65.72
2023-02-28T02:42:31.494Z,65.47
2023-02-28T02:45:03.617Z,65.72
2023-02-28T02:47:34.016Z,66.42
2023-02-28T02:50:07.046Z,66.23
2023-02-28T02:52:40.792Z,66.59
2023-02-28T02:55:11.926Z,66.72
2023-02-28T02:57:46.936Z,66.46
2023-02-28T03:00:19.287Z,66.58
2023-02-28T03:02:49.583Z,66.51
2023-02-28T03:05:22.294Z,66.45
2023-02-28T03:07:50.200Z,67.03
2023-02-28T03:10:34.410Z,66.70
2023-02-28T03:13:13.543Z,66.70
2023-02-28T03:15:52.808Z,66.56
2023-02-28T03:18:26.981Z,66.12
2023-02-28T03:21:07.086Z,65.69
2023-02-28T03:23:44.348Z,65.69
2023-02-28T03:26:19.348Z,65.30
2023-02-28T03:28:57.963Z,65.31
2023-02-28T03:31:32.807Z,65.18
2023-02-28T03:34:06.643Z,64.66
2023-02-28T03:36:44.619Z,64.67
2023-02-28T03:39:26.247Z,64.14
2023-02-28T03:41:58.625Z,64.17
2023-02-28T03:44:28.312Z,64.15
2023-02-28T03:47:02.020Z,63.44
2023-02-28T03:49:34.991Z,63.71
2023-02-28T03:52:08.071Z,63.43
2023-02-28T03:54:43.456Z,63.35
2023-02-28T03:57:18.279Z,63.31
2023-02-28T03:59:50.203Z,62.93
2023-02-28T04:02:17.954Z,62.78
2023-02-28T04:04:49.392Z,62.67
2023-02-28T04:07:19.130Z,62.48
2023-02-28T04:09:47.026Z,62.45
2023-02-28T04:12:14.772Z,62.38
2023-02-28T04:14:42.506Z,61.99
2023-02-28T04:17:10.268Z,62.07
2023-02-28T04:19:38.260Z,62.09
2023-02-28T04:22:05.997Z,62.08
2023-02-28T04:24:35.297Z,62.25
2023-02-28T04:27:03.748Z,62.14
2023-02-28T04:29:33.786Z,61.78
2023-02-28T04:32:02.608Z,61.67
2023-02-28T04:34:34.843Z,62.21
2023-02-28T04:37:12.893Z,61.65
2023-02-28T04:39:44.076Z,62.06
2023-02-28T04:42:12.373Z,61.93
2023-02-28T04:44:40.144Z,62.13
2023-02-28T04:47:07.920Z,62.25
2023-02-28T04:49:35.662Z,62.32
2023-02-28T04:52:03.399Z,62.15
2023-02-28T04:54:31.155Z,62.11
2023-02-28T04:57:00.188Z,62.09
2023-02-28T04:59:27.864Z,62.13
2023-02-28T05:01:55.585Z,61.96
2023-02-28T05:04:23.362Z,61.86
2023-02-28T05:06:51.118Z,62.01
2023-02-28T05:09:18.833Z,61.84
2023-02-28T05:11:46.538Z,61.91
2023-02-28T05:14:16.159Z,61.79
2023-02-28T05:16:43.990Z,61.77
2023-02-28T05:19:12.129Z,61.80
2023-02-28T05:21:41.898Z,62.02
2023-02-28T05:24:12.942Z,62.05
2023-02-28T05:26:43.032Z,62.06
2023-02-28T05:29:11.490Z,62.10
2023-02-28T05:31:40.672Z,62.10
2023-02-28T05:34:08.919Z,62.01
2023-02-28T05:36:38.989Z,62.07
2023-02-28T05:39:08.299Z,62.15
2023-02-28T05:41:36.005Z,61.82
2023-02-28T05:44:03.666Z,62.12
2023-02-28T05:46:31.390Z,61.99
2023-02-28T05:49:01.774Z,61.83
2023-02-28T05:51:30.258Z,62.08
2023-02-28T05:54:01.408Z,61.87
2023-02-28T05:56:29.327Z,62.09
2023-02-28T05:58:57.203Z,62.36
2023-02-28T06:01:32.685Z,62.54
2023-02-28T06:04:02.224Z,62.75
2023-02-28T06:06:31.488Z,62.34
2023-02-28T06:08:59.549Z,62.73
2023-02-28T06:11:29.061Z,62.93
2023-02-28T06:13:58.453Z,63.31
2023-02-28T06:16:26.584Z,62.93
2023-02-28T06:18:56.672Z,63.20
2023-02-28T06:21:26.180Z,63.17
2023-02-28T06:23:53.928Z,63.41
2023-02-28T06:26:22.099Z,63.53
2023-02-28T06:28:50.198Z,63.72
2023-02-28T06:31:20.053Z,63.65
2023-02-28T06:33:48.917Z,63.63
2023-02-28T06:36:18.679Z,63.82
2023-02-28T06:38:52.265Z,63.71
2023-02-28T06:41:20.049Z,63.44
2023-02-28T06:43:47.742Z,63.30
2023-02-28T06:46:16.181Z,63.79
2023-02-28T06:48:46.177Z,63.63
2023-02-28T06:51:16.778Z,63.36
2023-02-28T06:53:44.863Z,63.54
2023-02-28T06:56:16.109Z,63.23
2023-02-28T06:58:43.943Z,63.23
2023-02-28T07:01:11.780Z,63.23
2023-02-28T07:03:39.514Z,63.39
2023-02-28T07:06:07.974Z,63.16
2023-02-28T07:08:36.756Z,63.33
2023-02-28T07:11:04.581Z,63.32
2023-02-28T07:13:34.026Z,62.98
2023-02-28T07:16:07.498Z,62.90
2023-02-28T07:18:35.275Z,62.82
2023-02-28T07:21:04.934Z,62.83
2023-02-28T07:23:33.051Z,62.37
2023-02-28T07:26:04.903Z,62.72
2023-02-28T07:28:34.557Z,62.46
2023-02-28T07:31:06.605Z,62.30
2023-02-28T07:33:37.693Z,61.93
2023-02-28T07:36:07.328Z,61.56
2023-02-28T07:38:36.207Z,61.41
2023-02-28T07:41:06.498Z,61.43
2023-02-28T07:43:35.957Z,61.03
2023-02-28T07:46:05.339Z,61.08
2023-02-28T07:48:33.147Z,60.47
2023-02-28T07:51:01.793Z,60.41
2023-02-28T07:53:30.329Z,60.73
2023-02-28T07:55:58.480Z,60.52
2023-02-28T07:58:26.722Z,60.12
2023-02-28T08:00:55.980Z,60.56
2023-02-28T08:03:25.005Z,60.27
2023-02-28T08:05:53.499Z,60.05
2023-02-28T08:08:21.263Z,59.49
2023-02-28T08:10:49.062Z,59.08
2023-02-28T08:13:16.779Z,58.69
2023-02-28T08:15:46.339Z,57.89
2023-02-28T08:18:15.473Z,57.63
2023-02-28T08:20:43.176Z,57.50
2023-02-28T08:23:10.889Z,56.96
2023-02-28T08:25:38.655Z,56.41
2023-02-28T08:28:06.555Z,56.84
2023-02-28T08:30:34.542Z,56.47
2023-02-28T08:33:02.823Z,55.94
2023-02-28T08:35:32.110Z,55.83
2023-02-28T08:37:59.919Z,55.97
2023-02-28T08:40:27.584Z,54.92
2023-02-28T08:42:55.442Z,55.16
2023-02-28T08:45:23.314Z,54.50
2023-02-28T08:47:53.459Z,54.58
2023-02-28T08:50:31.729Z,52.92
2023-02-28T08:52:59.539Z,53.34
2023-02-28T08:55:27.200Z,53.25
2023-02-28T08:57:55.917Z,53.67
2023-02-28T09:00:24.801Z,52.87
2023-02-28T09:02:52.617Z,52.46
2023-02-28T09:05:20.476Z,51.23
2023-02-28T09:07:50.071Z,50.96
2023-02-28T09:10:18.401Z,50.60
2023-02-28T09:12:47.795Z,51.13
2023-02-28T09:15:15.614Z,51.32
2023-02-28T09:17:45.693Z,50.61
2023-02-28T09:20:14.639Z,50.37
2023-02-28T09:22:42.413Z,49.58
2023-02-28T09:25:11.502Z,49.42
2023-02-28T09:27:39.249Z,48.90
2023-02-28T09:30:08.495Z,48.81
2023-02-28T09:32:36.231Z,47.61
2023-02-28T09:35:04.092Z,47.15
2023-02-28T09:37:32.183Z,46.56
2023-02-28T09:39:59.959Z,46.14
2023-02-28T09:42:33.942Z,45.71
2023-02-28T09:45:04.006Z,44.92
2023-02-28T09:47:36.170Z,45.93
2023-02-28T09:50:13.712Z,44.62
2023-02-28T09:52:44.167Z,44.45
2023-02-28T09:55:26.334Z,45.03
2023-02-28T09:57:58.553Z,43.94
2023-02-28T10:00:32.590Z,43.49
2023-02-28T10:03:08.789Z,43.68
2023-02-28T10:05:44.387Z,44.16
2023-02-28T10:08:17.220Z,43.70
2023-02-28T10:10:47.155Z,43.63
2023-02-28T10:13:22.044Z,43.67
2023-02-28T10:15:53.964Z,43.06
2023-02-28T10:18:26.659Z,43.04
2023-02-28T10:20:56.780Z,43.99
2023-02-28T10:23:27.888Z,42.79
2023-02-28T10:25:59.421Z,43.44
2023-02-28T10:28:31.858Z,42.90
2023-02-28T10:31:00.730Z,42.98
2023-02-28T10:33:32.154Z,43.11
2023-02-28T10:36:00.747Z,43.01
2023-02-28T10:38:30.319Z,43.13
2023-02-28T10:41:09.059Z,43.96
2023-02-28T10:43:39.223Z,44.21
2023-02-28T10:46:16.260Z,43.62
2023-02-28T10:48:48.762Z,43.10
2023-02-28T10:51:20.005Z,42.64
2023-02-28T10:54:01.478Z,42.78
2023-02-28T10:56:30.705Z,42.51
2023-02-28T10:59:02.247Z,42.86
2023-02-28T11:01:41.187Z,42.97
2023-02-28T11:04:34.358Z,42.84
2023-02-28T11:07:04.089Z,43.18
2023-02-28T11:09:35.819Z,42.77
2023-02-28T11:12:05.997Z,42.47
2023-02-28T11:14:42.109Z,42.16
2023-02-28T11:17:17.327Z,42.84
2023-02-28T11:19:49.530Z,42.77
2023-02-28T11:22:21.415Z,42.40
2023-02-28T11:24:53.180Z,42.67
2023-02-28T11:27:46.065Z,42.02
2023-02-28T11:30:26.327Z,41.94
2023-02-28T11:32:55.494Z,41.94
2023-02-28T11:35:28.183Z,41.00
2023-02-28T11:37:55.967Z,41.00
2023-02-28T11:40:31.704Z,41.27
2023-02-28T11:43:08.752Z,41.20
2023-02-28T11:45:48.791Z,40.69
2023-02-28T11:48:24.336Z,39.92
2023-02-28T11:51:02.151Z,40.58
2023-02-28T11:53:57.081Z,40.21
2023-02-28T11:56:32.175Z,40.23
2023-02-28T11:59:25.620Z,40.14
2023-02-28T12:02:10.771Z,40.26
2023-02-28T12:04:51.101Z,39.93
2023-02-28T12:07:29.713Z,40.12
2023-02-28T12:10:09.171Z,39.93
2023-02-28T12:12:46.006Z,40.04
2023-02-28T12:15:49.403Z,39.62
2023-02-28T12:18:36.354Z,39.86
2023-02-28T12:21:15.381Z,40.23
2023-02-28T12:23:58.199Z,40.52
2023-02-28T12:26:37.272Z,40.15
2023-02-28T12:29:12.835Z,41.03
2023-02-28T12:31:44.247Z,40.17
2023-02-28T12:34:17.973Z,40.54
2023-02-28T12:36:49.903Z,41.18
2023-02-28T12:39:24.151Z,40.54
2023-02-28T12:41:56.521Z,40.64
2023-02-28T12:44:30.599Z,40.49
2023-02-28T12:47:05.192Z,40.60
2023-02-28T12:49:39.336Z,40.30
2023-02-28T12:52:12.008Z,40.84
2023-02-28T12:54:46.592Z,40.97
2023-02-28T12:57:20.970Z,40.60
2023-02-28T12:59:54.226Z,40.22
2023-02-28T13:03:01.968Z,40.34
2023-02-28T13:06:06.177Z,40.00
2023-02-28T13:09:03.030Z,40.12
2023-02-28T13:11:33.380Z,40.63
2023-02-28T13:14:04.264Z,40.71
2023-02-28T13:16:53.324Z,40.88
2023-02-28T13:19:24.379Z,41.71
2023-02-28T13:21:53.298Z,40.70
2023-02-28T13:24:47.664Z,41.10
2023-02-28T13:27:41.465Z,40.83
2023-02-28T13:30:46.642Z,41.34
2023-02-28T13:33:27.912Z,41.47
2023-02-28T13:36:27.722Z,41.38
2023-02-28T13:39:00.973Z,41.10
2023-02-28T13:41:57.127Z,41.44
2023-02-28T13:44:27.937Z,42.17
2023-02-28T13:47:28.067Z,41.77
2023-02-28T13:50:21.967Z,42.32
2023-02-28T13:52:57.673Z,42.54
2023-02-28T13:55:31.154Z,41.88
2023-02-28T13:58:41.212Z,41.94
2023-02-28T14:01:24.461Z,42.26
2023-02-28T14:04:08.104Z,42.46
2023-02-28T14:06:37.786Z,41.96
2023-02-28T14:09:18.781Z,42.54
2023-02-28T14:11:47.848Z,42.49
2023-02-28T14:14:49.012Z,42.72
2023-02-28T14:17:19.706Z,42.63
2023-02-28T14:19:50.976Z,43.03
2023-02-28T14:22:42.703Z,43.18
2023-02-28T14:25:19.390Z,42.96
2023-02-28T14:27:52.245Z,42.94
2023-02-28T14:30:39.175Z,43.24
2023-02-28T14:33:23.044Z,42.82
2023-02-28T14:36:24.926Z,42.87
2023-02-28T14:38:55.055Z,43.41
2023-02-28T14:41:25.515Z,43.31
2023-02-28T14:43:57.964Z,43.02
2023-02-28T14:46:28.323Z,43.02
2023-02-28T14:48:58.067Z,43.05
2023-02-28T14:51:26.240Z,43.50
2023-02-28T14:53:59.629Z,43.65
2023-02-28T14:56:32.337Z,43.71
2023-02-28T14:59:00.284Z,44.03
2023-02-28T15:01:28.878Z,44.41
2023-02-28T15:04:03.711Z,44.85
2023-02-28T15:06:32.389Z,44.42
2023-02-28T15:09:11.355Z,44.89
2023-02-28T15:11:40.994Z,44.81
2023-02-28T15:14:09.663Z,44.92
2023-02-28T15:16:41.323Z,44.62
2023-02-28T15:19:21.312Z,45.00
2023-02-28T15:21:53.407Z,44.81
2023-02-28T15:24:26.456Z,44.54
2023-02-28T15:26:59.189Z,43.94
2023-02-28T15:29:30.210Z,44.02
2023-02-28T15:32:02.264Z,44.49
2023-02-28T15:34:42.882Z,44.12
2023-02-28T15:37:31.947Z,44.72
2023-02-28T15:40:06.895Z,44.35
2023-02-28T15:42:34.706Z,44.24
2023-02-28T15:45:02.552Z,44.24
2023-02-28T15:47:40.626Z,43.77
2023-02-28T15:50:16.157Z,43.77
2023-02-28T15:52:46.164Z,43.88
2023-02-28T15:55:21.414Z,44.21
2023-02-28T15:57:52.422Z,44.23
2023-02-28T16:00:24.996Z,44.37
2023-02-28T16:02:53.522Z,43.97
2023-02-28T16:05:29.090Z,43.85
2023-02-28T16:08:05.683Z,44.32
2023-02-28T16:10:33.429Z,44.71
2023-02-28T16:13:05.703Z,44.76
2023-02-28T16:15:42.547Z,44.60
2023-02-28T16:18:12.408Z,44.05
2023-02-28T16:20:42.421Z,45.01
2023-02-28T16:23:10.258Z,44.88
2023-02-28T16:25:40.632Z,44.96
2023-02-28T16:28:14.811Z,45.13
2023-02-28T16:30:42.726Z,44.86
2023-02-28T16:33:11.509Z,45.06
2023-02-28T16:35:39.817Z,45.50
2023-02-28T16:38:09.208Z,45.48
2023-02-28T16:40:38.808Z,45.62
2023-02-28T16:43:10.498Z,45.57
2023-02-28T16:45:38.462Z,46.04
2023-02-28T16:48:06.389Z,45.72
2023-02-28T16:50:34.600Z,46.01
2023-02-28T16:53:12.021Z,46.64
2023-02-28T16:55:39.819Z,46.82
2023-02-28T16:58:07.863Z,46.81
2023-02-28T17:00:35.813Z,47.09
2023-02-28T17:03:06.373Z,47.09
2023-02-28T17:05:39.385Z,46.92
2023-02-28T17:08:07.617Z,47.37
2023-02-28T17:10:37.120Z,47.47
2023-02-28T17:13:14.518Z,47.12
2023-02-28T17:15:43.663Z,47.51
2023-02-28T17:18:16.921Z,47.36
2023-02-28T17:20:44.704Z,47.54
2023-02-28T17:23:12.473Z,47.64
2023-02-28T17:25:41.655Z,48.05
2023-02-28T17:28:11.072Z,48.13
2023-02-28T17:30:41.034Z,48.26
2023-02-28T17:33:09.065Z,47.80
2023-02-28T17:35:36.767Z,48.30
2023-02-28T17:38:04.526Z,48.48
2023-02-28T17:40:32.560Z,48.48
2023-02-28T17:43:01.715Z,48.16
2023-02-28T17:45:29.509Z,48.28
2023-02-28T17:47:57.444Z,48.72
2023-02-28T17:50:25.265Z,48.65
2023-02-28T17:52:53.038Z,48.97
2023-02-28T17:55:20.973Z,48.80
2023-02-28T17:57:48.782Z,49.15
2023-02-28T18:00:19.334Z,48.77
2023-02-28T18:02:47.301Z,48.63
2023-02-28T18:05:15.196Z,48.91
2023-02-28T18:07:43.162Z,49.22
2023-02-28T18:10:16.976Z,49.05
2023-02-28T18:12:45.073Z,49.33
2023-02-28T18:15:12.926Z,49.33
2023-02-28T18:17:43.979Z,49.23
2023-02-28T18:20:12.748Z,49.29
2023-02-28T18:22:42.054Z,49.21
2023-02-28T18:25:17.860Z,49.61
2023-02-28T18:27:58.433Z,49.49
2023-02-28T18:30:30.681Z,49.98
2023-02-28T18:33:03.293Z,50.07
2023-02-28T18:35:35.969Z,50.06
2023-02-28T18:38:05.867Z,50.60
2023-02-28T18:40:33.921Z,50.23
2023-02-28T18:43:02.068Z,50.58
2023-02-28T18:45:30.058Z,50.64
2023-02-28T18:47:59.848Z,50.34
2023-02-28T18:50:27.739Z,50.44
2023-02-28T18:52:55.480Z,50.95
2023-02-28T18:55:24.052Z,51.48
2023-02-28T18:57:51.972Z,51.11
2023-02-28T19:00:22.549Z,51.63
2023-02-28T19:02:51.042Z,51.49
2023-02-28T19:05:23.009Z,51.96
2023-02-28T19:07:51.121Z,51.98
2023-02-28T19:10:21.188Z,51.84
2023-02-28T19:12:49.119Z,52.20
2023-02-28T19:15:16.942Z,52.54
2023-02-28T19:17:46.245Z,52.40
2023-02-28T19:20:14.608Z,52.67
2023-02-28T19:22:45.267Z,52.67
2023-02-28T19:25:13.052Z,52.45
2023-02-28T19:27:40.821Z,52.70
2023-02-28T19:30:10.565Z,52.84
2023-02-28T19:32:38.489Z,52.57
2023-02-28T19:35:06.809Z,52.66
2023-02-28T19:37:37.858Z,53.18
2023-02-28T19:40:08.719Z,53.00
2023-02-28T19:42:36.876Z,53.18
2023-02-28T19:45:05.587Z,53.54
2023-02-28T19:47:33.311Z,53.93
2023-02-28T19:50:01.128Z,53.95
2023-02-28T19:52:28.822Z,53.55
2023-02-28T19:54:56.560Z,53.49
2023-02-28T19:57:26.930Z,53.70
2023-02-28T19:59:54.736Z,54.12
2023-02-28T20:02:23.621Z,53.72
2023-02-28T20:04:52.006Z,54.02
2023-02-28T20:07:21.271Z,53.92
2023-02-28T20:09:49.469Z,53.79
2023-02-28T20:12:24.157Z,54.00
2023-02-28T20:14:56.156Z,54.15
2023-02-28T20:17:24.421Z,54.07
2023-02-28T20:19:52.250Z,54.08
2023-02-28T20:22:21.424Z,53.96
2023-02-28T20:24:52.028Z,54.31
2023-02-28T20:27:19.854Z,54.56
2023-02-28T20:29:47.689Z,54.80
2023-02-28T20:32:16.931Z,54.86
2023-02-28T20:34:44.862Z,54.99
2023-02-28T20:37:12.929Z,55.17
2023-02-28T20:39:40.864Z,55.36
2023-02-28T20:42:08.653Z,55.53
2023-02-28T20:44:36.432Z,55.24
2023-02-28T20:47:04.740Z,55.82
2023-02-28T20:49:34.448Z,55.49
2023-02-28T20:52:03.204Z,55.67
2023-02-28T20:54:33.040Z,55.74
2023-02-28T20:57:00.981Z,55.59
2023-02-28T20:59:29.043Z,55.41
2023-02-28T21:01:57.314Z,55.65
2023-02-28T21:04:25.125Z,55.78
2023-02-28T21:06:54.277Z,55.66
2023-02-28T21:09:22.096Z,56.06
2023-02-28T21:11:49.948Z,56.23
2023-02-28T21:14:18.869Z,56.42
2023-02-28T21:16:46.958Z,56.16
2023-02-28T21:19:15.053Z,56.56
2023-02-28T21:21:48.084Z,56.56
2023-02-28T21:24:19.818Z,56.46
2023-02-28T21:26:48.931Z,56.50
2023-02-28T21:29:17.333Z,56.61
2023-02-28T21:31:45.161Z,56.58
2023-02-28T21:34:14.238Z,57.06
2023-02-28T21:36:47.448Z,56.77
2023-02-28T21:39:18.985Z,56.86
2023-02-28T21:41:48.315Z,56.85
2023-02-28T21:44:18.856Z,56.85
2023-02-28T21:46:48.475Z,57.25
2023-02-28T21:49:17.386Z,57.20
2023-02-28T21:51:45.428Z,57.16
2023-02-28T21:54:14.005Z,57.25
2023-02-28T21:56:43.437Z,57.55
2023-02-28T21:59:11.402Z,57.44
2023-02-28T22:01:41.408Z,57.62
2023-02-28T22:04:11.686Z,57.34
2023-02-28T22:06:42.172Z,57.51
2023-02-28T22:09:11.372Z,57.93
2023-02-28T22:11:40.376Z,57.65
2023-02-28T22:14:12.310Z,58.47
2023-02-28T22:16:51.303Z,58.09
2023-02-28T22:19:20.875Z,57.98
2023-02-28T22:21:48.697Z,58.32
2023-02-28T22:24:17.784Z,58.09
2023-02-28T22:26:45.679Z,58.23
2023-02-28T22:29:14.714Z,58.34
2023-02-28T22:31:42.421Z,58.46
2023-02-28T22:34:12.696Z,58.69
2023-02-28T22:36:42.143Z,58.46
2023-02-28T22:39:10.537Z,58.60
2023-02-28T22:41:38.613Z,58.50
2023-02-28T22:44:07.039Z,58.21
2023-02-28T22:46:37.052Z,58.67
2023-02-28T22:49:06.473Z,59.02
2023-02-28T22:51:35.619Z,58.56
2023-02-28T22:54:04.431Z,59.12
2023-02-28T22:56:32.618Z,59.01
2023-02-28T22:59:02.085Z,59.47
2023-02-28T23:01:32.037Z,58.94
2023-02-28T23:04:01.608Z,59.43
2023-02-28T23:06:32.369Z,58.98
2023-02-28T23:09:04.029Z,58.84
2023-02-28T23:11:34.510Z,59.38
2023-02-28T23:14:02.440Z,59.27
2023-02-28T23:16:32.625Z,59.14
2023-02-28T23:19:03.787Z,59.19
2023-02-28T23:21:32.005Z,59.62
2023-02-28T23:24:02.656Z,59.48
2023-02-28T23:26:31.251Z,59.45
2023-02-28T23:28:59.700Z,59.89
2023-02-28T23:31:27.561Z,59.67
2023-02-28T23:33:56.674Z,59.56
2023-02-28T23:36:25.722Z,59.96
2023-02-28T23:38:54.019Z,60.05
2023-02-28T23:41:23.618Z,59.85
2023-02-28T23:43:53.232Z,59.91
2023-02-28T23:46:22.600Z,60.43
2023-02-28T23:48:50.659Z,60.31
2023-02-28T23:51:20.715Z,60.43
2023-02-28T23:53:51.914Z,60.54
2023-02-28T23:56:21.397Z,60.65
2023-02-28T23:58:49.634Z,60.83
